Latest Weather Observations for Dunalley

IDT60901

Issued at 1:31 pm EST Wednesday 28 September 2016 (issued every 10 minutes, with the page automatically refreshed every 10 minutes)

About weather observations | Map of Hobart area stations | Latest observations for Hobart area | Other Formats
Station Details ID: 094254 Name: DUNALLEY (STROUD POINT) Lat: -42.90 Lon: 147.79 Height: 12.43 m
Data from the previous 72 hours. | See also: Recent months at Dunalley
Date/Time
EST
Temp
°C
App
Temp
°C
Dew
Point
°C
Rel
Hum
%
Delta-T
°C
Wind Press
QNH
hPa
Press
MSL
hPa
Rain since
9am
mm
Dir  Spd
km/h
Gust
km/h
Spd
kts
Gust
kts
28/01:30pm 13.8 7.8 5.4 57 4.0 NE 26 30 14 16 1007.6 1007.6 0.0
28/01:00pm 15.3 10.3 6.6 56 4.2 NE 22 28 12 15 1007.9 1007.9 0.0
28/12:30pm 14.5 11.6 2.7 45 5.3 W 7 9 4 5 1008.3 1008.3 0.0
28/12:00pm 14.6 11.8 3.1 46 5.2 W 7 9 4 5 1008.6 1008.6 0.0
28/11:30am 14.2 11.5 3.7 49 4.8 W 7 11 4 6 1008.8 1008.8 0.0
28/11:00am 13.7 10.8 4.6 54 4.2 W 9 11 5 6 1009.1 1009.1 0.0
28/10:30am 13.3 10.7 4.2 54 4.1 W 7 9 4 5 1009.5 1009.5 0.0
28/10:00am 13.2 10.0 4.9 57 3.8 W 11 13 6 7 1009.6 1009.6 0.0
28/09:30am 13.3 10.2 5.7 60 3.6 W 11 13 6 7 1009.8 1009.8 0.0
28/09:00am 12.8 9.6 5.2 60 3.5 W 11 15 6 8 1010.1 1010.1 0.0
28/08:30am 12.5 9.3 5.0 60 3.5 W 11 15 6 8 1010.0 1010.0 0.0
28/08:00am 12.1 8.5 5.0 62 3.3 WNW 13 19 7 10 1010.1 1010.1 0.0
28/07:30am 11.5 8.4 5.4 66 2.8 W 11 15 6 8 1009.9 1009.9 0.0
28/07:00am 10.6 7.5 5.4 70 2.4 WNW 11 15 6 8 1009.5 1009.5 0.0
28/06:30am 9.7 6.0 4.7 71 2.2 WNW 13 19 7 10 1009.4 1009.4 0.0
28/06:00am 9.7 6.0 4.3 69 2.4 NW 13 17 7 9 1009.0 1009.0 0.0
28/05:30am 9.7 5.6 4.3 69 2.4 NW 15 20 8 11 1008.7 1008.7 0.0
28/05:00am 9.5 5.1 4.5 71 2.2 NW 17 22 9 12 1008.5 1008.5 0.0
28/04:30am 9.1 6.6 4.7 74 2.0 WNW 7 11 4 6 1008.3 1008.3 0.0
28/04:00am 9.3 6.8 4.9 74 2.0 WNW 7 11 4 6 1008.1 1008.1 0.0
28/03:30am 10.1 7.7 5.3 72 2.2 NW 7 15 4 8 1007.7 1007.7 0.0
28/03:00am 10.9 7.0 5.2 68 2.6 NW 15 22 8 12 1007.6 1007.6 0.0
28/02:30am 10.3 8.1 6.1 75 1.9 WNW 7 13 4 7 1007.4 1007.4 0.0
28/02:00am 10.8 7.6 5.3 69 2.5 NW 11 15 6 8 1007.3 1007.3 0.0
28/01:30am 10.5 7.9 6.1 74 2.0 NNE 9 17 5 9 1007.3 1007.3 0.0
28/01:00am 9.6 7.5 6.7 82 1.4 NNE 7 11 4 6 1007.3 1007.3 0.0
28/12:30am 9.9 8.9 7.3 84 1.2 NNE 2 6 1 3 1007.4 1007.4 0.0
28/12:00am 10.0 7.7 7.4 84 1.2 NNE 9 11 5 6 1007.4 1007.4 0.0
 
Date/Time
EST
Temp
°C
App
Temp
°C
Dew
Point
°C
Rel
Hum
%
Delta-T
°C
Wind Press
QNH
hPa
Press
MSL
hPa
Rain since
9am
mm
Dir  Spd
km/h
Gust
km/h
Spd
kts
Gust
kts
27/11:30pm 9.9 7.5 7.2 83 1.3 NNE 9 13 5 7 1007.4 1007.4 0.0
27/11:00pm 10.1 8.1 6.3 77 1.8 NNE 6 7 3 4 1007.4 1007.4 0.0
27/10:30pm 11.0 9.0 7.1 77 1.9 NNE 7 11 4 6 1007.4 1007.4 0.0
27/10:00pm 10.7 8.7 7.0 78 1.8 NNE 7 13 4 7 1007.4 1007.4 0.0
27/09:30pm 11.0 8.7 7.5 79 1.7 NNE 9 13 5 7 1007.5 1007.5 0.0
27/09:00pm 11.6 9.7 7.5 76 2.0 NNE 7 13 4 7 1007.5 1007.5 0.0
27/08:30pm 11.7 9.8 7.6 76 2.0 NNE 7 17 4 9 1007.5 1007.5 0.0
27/08:00pm 11.9 7.8 8.0 77 1.9 NE 19 22 10 12 1007.3 1007.3 0.0
27/07:30pm 11.6 7.2 7.5 76 2.0 NE 20 24 11 13 1007.1 1007.1 0.0
27/07:00pm 11.6 7.3 7.1 74 2.2 NE 19 24 10 13 1007.2 1007.2 0.0
27/06:30pm 12.3 7.2 7.6 73 2.3 NE 24 30 13 16 1006.8 1006.8 0.0
27/06:00pm 12.5 7.0 7.4 71 2.5 ENE 26 32 14 17 1006.6 1006.6 0.0
27/05:30pm 12.9 7.4 7.4 69 2.7 ENE 26 32 14 17 1006.5 1006.5 0.0
27/05:00pm 13.4 7.8 7.0 65 3.1 NE 26 32 14 17 1006.4 1006.4 0.0
27/04:30pm 13.9 8.5 6.5 61 3.6 NE 24 30 13 16 1006.3 1006.3 0.0
27/04:00pm 14.5 9.4 7.5 63 3.5 NE 24 30 13 16 1006.4 1006.4 0.0
27/03:30pm 14.7 9.5 7.3 61 3.6 NE 24 28 13 15 1006.5 1006.5 0.0
27/03:00pm 15.0 10.2 7.3 60 3.8 NE 22 28 12 15 1006.4 1006.4 0.0
27/02:30pm 15.7 11.3 7.2 57 4.2 NE 20 24 11 13 1006.5 1006.5 0.0
27/02:00pm 15.6 11.2 6.6 55 4.4 NE 19 22 10 12 1006.8 1006.8 0.0
27/01:30pm 15.9 11.8 6.3 53 4.7 NE 17 22 9 12 1006.9 1006.9 0.0
27/01:00pm 15.2 13.0 6.0 54 4.4 WNW 7 13 4 7 1007.1 1007.1 0.0
27/12:30pm 14.1 12.2 6.7 61 3.6 WNW 6 7 3 4 1007.5 1007.5 0.0
27/12:00pm 12.8 10.9 6.8 67 2.9 WNW 6 7 3 4 1007.6 1007.6 0.0
27/11:30am 12.7 10.9 7.2 69 2.7 WNW 6 7 3 4 1007.7 1007.7 0.0
27/11:00am 11.9 9.9 6.4 69 2.6 WNW 6 9 3 5 1007.9 1007.9 0.0
27/10:30am 11.9 9.9 6.4 69 2.6 WNW 6 7 3 4 1008.1 1008.1 0.0
27/10:00am 11.0 8.8 6.4 73 2.2 WNW 7 9 4 5 1008.1 1008.1 0.0
27/09:30am 10.9 8.6 5.9 71 2.3 WNW 7 9 4 5 1008.2 1008.2 0.0
27/09:00am 10.7 8.4 5.7 71 2.3 WNW 7 9 4 5 1008.1 1008.1 0.0
27/08:30am 10.3 7.2 5.7 73 2.1 WNW 11 13 6 7 1008.2 1008.2 0.0
27/08:00am 9.8 7.1 5.6 75 1.9 WNW 9 11 5 6 1008.3 1008.3 0.0
27/07:30am 9.2 7.5 6.1 81 1.4 WNW 4 4 2 2 1008.2 1008.2 0.0
27/07:00am 8.4 7.3 5.3 81 1.4 CALM 0 0 0 0 1008.2 1008.2 0.0
27/06:30am 7.8 6.9 5.9 88 0.9 CALM 0 0 0 0 1008.2 1008.2 0.0
27/06:00am 7.3 6.3 5.4 88 0.8 CALM 0 0 0 0 1007.9 1007.9 0.0
27/05:30am 7.3 5.9 5.4 88 0.8 WNW 2 4 1 2 1007.7 1007.7 0.0
27/05:00am 8.2 7.2 5.8 85 1.1 CALM 0 0 0 0 1007.5 1007.5 0.0
27/04:30am 8.2 6.9 5.8 85 1.1 WNW 2 2 1 1 1007.3 1007.3 0.0
27/04:00am 7.4 5.6 5.4 87 0.9 WNW 4 6 2 3 1007.2 1007.2 0.0
27/03:30am 7.5 6.4 5.0 84 1.1 CALM 0 0 0 0 1007.2 1007.2 0.0
27/03:00am 7.9 6.0 4.8 81 1.4 WNW 4 4 2 2 1007.4 1007.4 0.0
27/02:30am 6.8 4.8 4.6 86 1.0 WNW 4 6 2 3 1007.6 1007.6 0.0
27/02:00am 7.6 5.2 4.4 80 1.4 WNW 6 7 3 4 1007.7 1007.7 0.0
27/01:30am 8.8 7.9 5.9 82 1.3 CALM 0 0 0 0 1008.0 1008.0 0.0
27/01:00am 8.1 6.8 5.9 86 1.0 WNW 2 4 1 2 1008.2 1008.2 0.0
27/12:30am 8.7 7.9 6.5 86 1.0 CALM 0 0 0 0 1008.5 1008.5 0.0
27/12:00am 8.7 7.1 6.5 86 1.0 WNW 4 6 2 3 1008.6 1008.6 0.0
 
Date/Time
EST
Temp
°C
App
Temp
°C
Dew
Point
°C
Rel
Hum
%
Delta-T
°C
Wind Press
QNH
hPa
Press
MSL
hPa
Rain since
9am
mm
Dir  Spd
km/h
Gust
km/h
Spd
kts
Gust
kts
26/11:30pm 9.0 7.0 6.4 84 1.2 WNW 6 6 3 3 1008.7 1008.7 0.0
26/11:00pm 8.8 6.8 6.1 83 1.2 WNW 6 7 3 4 1008.9 1008.9 0.0
26/10:30pm 9.7 8.6 7.0 83 1.3 WNW 2 4 1 2 1009.0 1009.0 0.0
26/10:00pm 10.1 8.1 7.3 83 1.3 WNW 7 9 4 5 1009.2 1009.2 0.0
26/09:30pm 11.1 8.4 7.2 77 1.9 W 11 17 6 9 1009.3 1009.3 0.0
26/09:00pm 11.0 7.5 7.1 77 1.9 NNE 15 20 8 11 1009.1 1009.1 0.0
26/08:30pm 11.5 7.1 7.4 76 2.0 NE 20 26 11 14 1008.9 1008.9 0.0
26/08:00pm 11.3 6.8 6.8 74 2.1 NE 20 24 11 13 1008.9 1008.9 0.0
26/07:30pm 11.3 6.0 6.8 74 2.1 NE 24 32 13 17 1008.6 1008.6 0.0
26/07:00pm 11.4 6.1 6.9 74 2.1 NE 24 28 13 15 1008.5 1008.5 0.0
26/06:30pm 11.3 5.9 6.4 72 2.3 NE 24 28 13 15 1008.3 1008.3 0.0
26/06:00pm 11.5 5.8 6.6 72 2.3 NE 26 32 14 17 1008.2 1008.2 0.0
26/05:30pm 12.0 6.3 6.7 70 2.5 NE 26 32 14 17 1008.1 1008.1 0.0
26/05:00pm 12.0 5.5 6.7 70 2.5 NE 30 35 16 19 1007.9 1007.9 0.0
26/04:30pm 12.1 5.6 6.4 68 2.7 NE 30 35 16 19 1007.8 1007.8 0.0
26/04:00pm 13.1 7.4 6.7 65 3.1 NE 26 32 14 17 1007.8 1007.8 0.0
26/03:30pm 13.6 7.9 6.5 62 3.4 ENE 26 32 14 17 1007.8 1007.8 0.0
26/03:00pm 13.9 8.5 6.3 60 3.6 ENE 24 28 13 15 1008.1 1008.1 0.0
26/02:30pm 13.9 9.3 5.8 58 3.8 ENE 19 24 10 13 1008.2 1008.2 0.0
26/02:00pm 13.9 9.3 5.8 58 3.8 ENE 19 24 10 13 1008.4 1008.4 0.0
26/01:30pm 13.4 8.1 5.1 57 3.9 NE 22 28 12 15 1008.5 1008.5 0.0
26/01:00pm 13.7 8.8 5.3 57 3.9 ENE 20 28 11 15 1008.6 1008.6 0.0
26/12:30pm 14.9 10.8 6.2 56 4.2 NE 17 24 9 13 1009.1 1009.1 0.0
26/12:00pm 13.6 8.8 4.5 54 4.2 NE 19 26 10 14 1009.5 1009.5 0.0
26/11:30am 14.5 9.4 4.2 50 4.7 NE 20 24 11 13 1009.7 1009.7 0.0
26/11:00am 12.4 9.6 3.4 54 4.0 NNW 7 13 4 7 1009.9 1009.9 0.0
26/10:30am 11.3 8.6 3.8 60 3.3 NNW 7 9 4 5 1010.4 1010.4 0.0
26/10:00am 11.8 9.4 4.5 61 3.3 NNW 6 7 3 4 1010.6 1010.6 0.0
26/09:30am 11.5 8.9 4.3 61 3.2 NNW 7 11 4 6 1010.7 1010.7 0.0
26/09:00am 11.8 9.1 2.8 54 3.9 NNW 6 9 3 5 1010.8 1010.8 0.0
26/08:30am 11.4 7.8 2.9 56 3.7 NW 11 15 6 8 1010.9 1010.9 0.0
26/08:00am 10.5 6.5 2.6 58 3.4 NNW 13 20 7 11 1011.1 1011.1 0.0
26/07:30am 9.9 5.8 2.3 59 3.2 NNW 13 20 7 11 1011.1 1011.1 0.0
26/07:00am 9.1 4.6 2.0 61 3.0 NNW 15 19 8 10 1011.1 1011.1 0.0
26/06:30am 8.1 3.9 1.9 65 2.6 NW 13 17 7 9 1011.1 1011.1 0.0
26/06:00am 7.9 3.7 1.7 65 2.5 NW 13 17 7 9 1010.9 1010.9 0.0
26/05:30am 7.7 3.2 2.0 67 2.3 NNW 15 19 8 10 1010.6 1010.6 0.0
26/05:00am 7.5 3.0 2.0 68 2.3 NNW 15 19 8 10 1010.5 1010.5 0.0
26/04:30am 7.7 3.2 2.0 67 2.3 NW 15 19 8 10 1010.5 1010.5 0.0
26/04:00am 8.2 3.7 2.0 65 2.6 NNW 15 19 8 10 1010.4 1010.4 0.0
26/03:30am 8.0 3.5 2.0 66 2.5 NNW 15 22 8 12 1010.4 1010.4 0.0
26/03:00am 8.1 3.6 2.1 66 2.5 NNW 15 20 8 11 1010.2 1010.2 0.0
26/02:30am 8.1 3.2 2.1 66 2.5 NNW 17 24 9 13 1010.2 1010.2 0.0
26/02:00am 8.4 3.2 2.4 66 2.5 NW 19 24 10 13 1010.4 1010.4 0.0
26/01:30am 8.3 3.1 2.3 66 2.5 NW 19 26 10 14 1010.4 1010.4 0.0
26/01:00am 8.1 3.3 2.4 67 2.4 NW 17 24 9 13 1010.5 1010.5 0.0
26/12:30am 7.7 2.9 2.4 69 2.2 NW 17 22 9 12 1010.3 1010.3 0.0
26/12:00am 8.1 3.6 2.4 67 2.4 NW 15 20 8 11 1010.3 1010.3 0.0
 
Date/Time
EST
Temp
°C
App
Temp
°C
Dew
Point
°C
Rel
Hum
%
Delta-T
°C
Wind Press
QNH
hPa
Press
MSL
hPa
Rain since
9am
mm
Dir  Spd
km/h
Gust
km/h
Spd
kts
Gust
kts
25/11:30pm 8.3 3.4 2.1 65 2.6 NW 17 22 9 12 1010.3 1010.3 0.0
25/11:00pm 8.6 3.4 2.2 64 2.7 WNW 19 24 10 13 1010.3 1010.3 0.0
25/10:30pm 8.4 4.2 1.8 63 2.7 NW 13 19 7 10 1010.3 1010.3 0.0
25/10:00pm 8.9 4.8 2.0 62 2.9 WNW 13 17 7 9 1010.1 1010.1 0.0
25/09:30pm 8.6 5.3 2.4 65 2.6 W 9 11 5 6 1010.1 1010.1 0.0
25/09:00pm 10.9 5.6 3.0 58 3.4 SW 20 24 11 13 1009.8 1009.8 0.0
25/08:30pm 11.1 5.2 4.1 62 3.1 SW 24 28 13 15 1009.3 1009.3 0.0
25/08:00pm 11.3 6.5 4.5 63 3.1 SW 19 22 10 12 1009.1 1009.1 0.0
25/07:30pm 11.6 6.1 4.1 60 3.4 SW 22 26 12 14 1008.6 1008.6 0.0
25/07:00pm 12.0 5.8 4.2 59 3.5 SW 26 32 14 17 1007.9 1007.9 0.0
25/06:30pm 12.1 6.8 5.0 62 3.3 SW 22 24 12 13 1007.3 1007.3 0.0
25/06:00pm 12.4 6.7 4.9 60 3.5 WSW 24 28 13 15 1006.9 1006.9 0.0
25/05:30pm 12.9 5.8 3.8 54 4.1 SW 30 35 16 19 1006.4 1006.4 0.0
25/05:00pm 13.2 5.9 4.6 56 4.0 SW 32 37 17 20 1005.9 1005.9 0.0
25/04:30pm 13.7 6.6 5.6 58 3.8 SW 32 37 17 20 1005.6 1005.6 0.0
25/04:00pm 14.3 8.2 4.9 53 4.4 SW 26 32 14 17 1005.3 1005.3 0.0
25/03:30pm 14.5 8.4 4.8 52 4.5 SW 26 32 14 17 1005.0 1005.0 0.0
25/03:00pm 13.7 6.6 5.6 58 3.8 SW 32 37 17 20 1004.8 1004.8 0.0
25/02:30pm 13.9 8.2 5.0 55 4.1 SW 24 28 13 15 1004.6 1004.6 0.0
25/02:00pm 14.5 8.3 4.5 51 4.7 SW 26 32 14 17 1004.5 1004.5 0.0

Latest Capital City Observations: Canberra | Sydney | Melbourne | Brisbane | Adelaide | Perth | Hobart | Darwin

Other Formats:

Comma delimited format used in spreadsheet applications
http://www.bom.gov.au/fwo/IDT60901/IDT60901.94951.axf

JavaScript Object Notation format (JSON) in row-major order
http://www.bom.gov.au/fwo/IDT60901/IDT60901.94951.json